Latest Coastal Weather Observations for Sydney Airport

IDN60701

Issued at 6:41 pm EDT Tuesday 6 December 2022 (issued every 10 minutes, with the page automatically refreshed every 10 minutes)

About coastal observations | Map of coastal stations | Coastal observations for NSW | Marine services | Other Formats
Station Details ID: 066037 Name: SYDNEY AIRPORT AMO Lat: -33.95 Lon: 151.17 Height: 6.0 m
Data from the previous 72 hours. | See also: Recent months at Sydney Airport
Date/Time
EDT
Wind Sea
Height
m
Swell Vis
km
Cloud Weather Temp
°C
Press
MSL
hPa
Rain since
9am
mm
Dir  Spd
kts
Gust
kts
Height
m
Period
s
Dir
06/06:30pm SE 12 15 - - - - 10 Partly cloudy - 19.9 1007.1 0.0
06/06:00pm SE 12 16 - - - - 10 Partly cloudy - 19.6 1006.8 0.0
06/05:30pm SE 13 16 - - - - 10 Mostly clear - 20.7 1006.6 0.0
06/05:00pm SSE 16 21 - - - - 10 Mostly clear - 20.3 1006.3 0.0
06/04:30pm SSE 16 21 - - - - 10 Mostly clear - 21.5 1006.4 0.0
06/04:00pm SSE 16 21 - - - - 10 Mostly clear - 20.6 1006.4 0.0
06/03:30pm SE 16 20 - - - - 10 Mostly clear - 21.7 1006.4 0.0
06/03:00pm SE 15 20 - - - - 25 Partly cloudy Fine 22.3 1006.7 0.0
06/02:30pm SE 16 20 - - - - 10 Partly cloudy - 22.4 1006.7 0.0
06/02:00pm SSE 16 21 - - - - 10 Mostly clear - 21.6 1006.9 0.0
06/01:30pm SE 15 19 - - - - 10 Mostly clear - 22.3 1007.1 0.0
06/01:00pm SSE 14 19 - - - - 10 Partly cloudy - 21.9 1007.4 0.0
06/12:30pm SSE 14 18 - - - - 10 Mostly clear - 21.8 1007.6 0.0
06/12:00pm SSE 15 19 - - - - 25 Partly cloudy Fine 20.5 1007.6 0.0
06/11:30am SSE 12 16 - - - - 10 Mostly clear - 20.7 1007.6 0.0
06/11:00am SSE 14 19 - - - - 10 Mostly clear - 20.6 1007.6 0.0
06/10:30am SSE 14 18 - - - - 10 Mostly clear - 20.2 1007.8 0.0
06/10:00am SSE 13 17 - - - - 10 Mostly clear - 20.1 1007.8 0.0
06/09:30am S 10 14 - - - - 10 Partly cloudy - 19.5 1007.8 0.0
06/09:00am SSE 10 14 - - - - 25 Partly cloudy Fine 19.4 1007.5 10.8
06/08:30am S 10 13 - - - - 10 Partly cloudy - 19.1 1007.5 10.8
06/08:00am S 8 10 - - - - 10 Mostly clear - 18.6 1007.4 10.8
06/07:30am SSW 8 10 - - - - 10 Mostly clear - 18.7 1007.1 10.8
06/07:00am SW 9 11 - - - - 10 Mostly clear - 18.2 1006.7 10.8
06/06:30am SSW 10 19 - - - - 10 Mostly clear - 18.1 1006.3 10.8
06/06:00am SSW 10 12 - - - - 14 Mostly clear Haze 17.7 1006.0 10.8
06/05:30am SSW 13 16 - - - - 10 Mostly clear - 17.8 1005.6 10.8
06/05:00am S 14 17 - - - - 10 Mostly clear - 17.8 1005.4 10.8
06/04:30am S 14 18 - - - - 10 Mostly clear - 18.0 1005.7 10.8
06/04:00am S 15 19 - - - - 10 Mostly clear - 18.0 1005.8 10.8
06/03:30am S 19 22 - - - - 10 Mostly clear - 18.1 1005.8 10.8
06/03:12am S 16 20 - - - - 10 Partly cloudy - 18.6 1005.8 10.8
06/03:00am S 16 20 - - - - 15 Mostly cloudy Haze 18.4 1005.9 10.8
06/02:30am SSW 18 24 - - - - 10 Mostly cloudy - 18.5 1005.8 10.8
06/02:00am SSW 17 23 - - - - 10 Mostly clear - 18.5 1005.7 10.8
06/01:30am S 17 20 - - - - 10 Partly cloudy - 18.6 1005.7 10.8
06/01:00am S 18 22 - - - - 10 Partly cloudy - 19.0 1005.7 10.8
06/12:30am S 14 17 - - - - 10 Mostly clear - 19.3 1005.7 10.8
06/12:00am S 15 19 - - - - 20 Mostly cloudy Recent precip. 19.0 1005.8 10.8
 
Date/Time
EDT
Wind Sea
Height
m
Swell Vis
km
Cloud Weather Temp
°C
Press
MSL
hPa
Rain since
9am
mm
Dir  Spd
kts
Gust
kts
Height
m
Period
s
Dir
05/11:30pm S 15 18 - - - - 10 Mostly clear - 19.0 1005.9 10.8
05/11:00pm SSE 14 17 - - - - 9 Mostly clear - 19.2 1005.8 10.8
05/10:30pm S 20 26 - - - - 8 Mostly clear - 19.1 1006.2 10.2
05/10:20pm S 20 26 - - - - 9 Mostly clear Showers 19.1 1006.2 10.2
05/10:00pm S 18 22 - - - - 5 Partly cloudy - 19.8 1006.1 10.0
05/09:30pm SE 6 7 - - - - 8 Mostly clear Showers 20.2 1005.8 8.4
05/09:16pm SSE 8 10 - - - - 9 Partly cloudy Showers 20.3 1005.3 8.4
05/09:00pm WNW 8 18 - - - - 7 Mostly cloudy Thunderstorm 20.1 1004.6 8.4
05/08:51pm SW 14 20 - - - - 2 Partly cloudy Thunderstorm 20.2 1006.1 1.8
05/08:48pm SSW 12 18 - - - - 7 Mostly clear Thunderstorm 21.3 1006.2 0.6
05/08:38pm S 14 26 - - - - 10 Mostly clear Thunderstorm 21.1 1004.5 0.4
05/08:35pm SE 12 26 - - - - 10 Mostly clear Showers 21.3 1004.5 0.4
05/08:30pm ENE 11 15 - - - - 10 Mostly clear Showers 21.9 1004.0 0.4
05/08:00pm ESE 12 15 - - - - 10 Mostly clear - 21.5 1003.5 0.4
05/07:30pm SSE 12 15 - - - - 10 Mostly clear Showers 21.8 1003.6 0.2
05/07:18pm SSE 19 28 - - - - 10 Mostly clear Showers 21.4 1003.3 0.0
05/07:00pm WNW 15 28 - - - - 10 Mostly clear - 23.5 1003.5 0.0
05/06:59pm NNW 14 27 - - - - 10 Mostly clear Thunderstorm 24.5 1003.5 0.0
05/06:30pm NNE 18 22 - - - - 10 Mostly clear - 26.0 1001.6 0.0
05/06:00pm NNE 18 24 - - - - 25 Partly cloudy Lightning 26.6 1001.5 0.0
05/05:30pm NNE 16 21 - - - - 10 Mostly clear - 28.0 1001.6 0.0
05/05:00pm NNE 18 23 - - - - 10 Mostly clear - 28.1 1001.9 0.0
05/04:41pm NNE 23 27 - - - - 10 Mostly clear Thunderstorm 26.4 1003.1 0.0
05/04:30pm NNE 19 24 - - - - 10 Partly cloudy Thunder 25.3 1002.9 0.0
05/04:25pm NNE 20 24 - - - - 10 Partly cloudy Thunder 25.4 1002.5 0.0
05/04:00pm NE 22 27 - - - - 10 Mostly clear - 27.1 1002.5 0.0
05/03:30pm NE 21 26 - - - - 10 Partly cloudy - 28.3 1002.9 0.0
05/03:00pm NNE 19 23 - - - - 25 Partly cloudy Haze 28.9 1003.3 0.0
05/02:30pm NE 19 23 - - - - 10 Mostly clear - 28.5 1003.8 0.0
05/02:00pm NNE 18 21 - - - - 10 Mostly clear - 29.0 1004.2 0.0
05/01:30pm NE 17 20 - - - - 10 Mostly clear - 28.6 1004.7 0.0
05/01:00pm NE 16 18 - - - - 10 Mostly clear - 28.3 1005.3 0.0
05/12:30pm NNE 14 17 - - - - 10 - - 27.3 1005.9 0.0
05/12:00pm NE 12 17 - - - - 25 Mostly clear Fine 27.4 1006.4 0.0
05/11:30am NE 10 14 - - - - 10 - - 26.8 1006.8 0.0
05/11:00am NE 9 14 - - - - 10 - - 25.6 1007.3 0.0
05/10:30am NNE 9 13 - - - - 10 - - 25.4 1007.6 0.0
05/10:00am N 9 15 - - - - 10 - - 25.2 1008.0 0.0
05/09:30am N 7 11 - - - - 10 - - 24.6 1008.4 0.0
05/09:00am N 7 10 - - - - 25 Mostly clear Fine 23.4 1009.0 0.0
05/08:30am N 7 9 - - - - 10 Mostly clear - 22.3 1009.4 0.0
05/08:00am N 7 9 - - - - 10 Mostly clear - 21.6 1009.7 0.0
05/07:30am N 6 7 - - - - 10 Mostly clear - 20.3 1009.8 0.0
05/07:00am NW 7 8 - - - - 10 Mostly clear - 19.2 1009.8 0.0
05/06:30am N 6 6 - - - - 10 Mostly clear - 19.1 1009.6 0.0
05/06:00am NNW 7 8 - - - - 25 Mostly clear Fine 18.3 1009.7 0.0
05/05:30am N 6 7 - - - - 10 Mostly clear - 18.0 1009.4 0.0
05/05:00am NNW 7 8 - - - - 10 Mostly clear - 18.1 1009.5 0.0
05/04:30am N 7 8 - - - - 10 Mostly clear - 17.9 1009.5 0.0
05/04:00am N 8 9 - - - - 10 - - 17.8 1009.8 0.0
05/03:30am NNW 6 7 - - - - 10 - - 17.9 1010.3 0.0
05/03:00am WNW 6 7 - - - - 30 Clear Fine 17.9 1010.7 0.0
05/02:30am N 6 7 - - - - 10 - - 18.5 1011.0 0.0
05/02:00am NNE 8 9 - - - - 10 - - 18.8 1011.6 0.0
05/01:30am N 11 14 - - - - 10 - - 19.2 1012.1 0.0
05/01:00am N 12 16 - - - - 10 Mostly clear - 19.3 1012.6 0.0
05/12:30am N 10 14 - - - - 10 Mostly clear - 19.7 1013.1 0.0
05/12:00am N 14 18 - - - - 30 Partly cloudy Fine 20.1 1013.2 0.0
 
Date/Time
EDT
Wind Sea
Height
m
Swell Vis
km
Cloud Weather Temp
°C
Press
MSL
hPa
Rain since
9am
mm
Dir  Spd
kts
Gust
kts
Height
m
Period
s
Dir
04/11:30pm NNE 15 20 - - - - 10 Mostly clear - 20.4 1013.4 0.0
04/11:00pm NNE 12 17 - - - - 10 Mostly clear - 20.5 1013.6 0.0
04/10:30pm NNE 14 20 - - - - 10 - - 20.5 1013.8 0.0
04/10:00pm NNE 13 16 - - - - 10 Mostly clear - 20.5 1014.0 0.0
04/09:30pm NNE 15 18 - - - - 10 Mostly clear - 20.5 1013.8 0.0
04/09:00pm NNE 15 20 - - - - 30 Mostly clear Fine 20.9 1013.5 0.0
04/08:30pm NNE 15 19 - - - - 10 - - 21.1 1013.4 0.0
04/08:00pm NNE 16 20 - - - - 10 - - 21.0 1013.3 0.0
04/07:30pm NNE 19 26 - - - - 10 - - 21.3 1013.3 0.0
04/07:00pm NNE 19 26 - - - - 10 - - 21.7 1013.0 0.0
04/06:30pm NE 18 23 - - - - 10 - - 22.6 1012.9 0.0
04/06:13pm NNE 19 29 - - - - 10 - - 22.3 1012.8 0.0
04/06:00pm NE 21 26 - - - - 10 - - 22.7 1012.9 0.0
04/05:30pm NE 20 26 - - - - 10 - - 23.4 1013.0 0.0
04/05:00pm NE 19 25 - - - - 10 - - 23.3 1013.1 0.0
04/04:30pm NE 17 21 - - - - 10 - - 23.8 1013.3 0.0
04/04:00pm ENE 18 22 - - - - 10 - - 24.5 1013.5 0.0
04/03:30pm NE 18 23 - - - - 10 Mostly clear - 24.6 1013.8 0.0
04/03:00pm NE 18 21 - - - - 30 Mostly clear Fine 25.2 1014.1 0.0
04/02:30pm NE 15 21 - - - - 10 Mostly clear - 24.9 1014.4 0.0
04/02:00pm NE 16 20 - - - - 10 Mostly clear - 24.3 1014.8 0.0
04/01:30pm NE 16 21 - - - - 10 Mostly clear - 24.2 1015.1 0.0
04/01:00pm NE 14 18 - - - - 10 Mostly clear - 24.9 1015.5 0.0
04/12:30pm NE 15 19 - - - - 10 Mostly clear - 25.0 1015.9 0.0
04/12:00pm NNE 13 18 - - - - 30 Mostly clear Fine 24.9 1016.2 0.0
04/11:30am NE 13 17 - - - - 10 Mostly clear - 24.3 1016.5 0.0
04/11:00am NNE 12 16 - - - - 10 Mostly clear - 23.4 1016.7 0.0
04/10:30am NE 9 13 - - - - 10 Partly cloudy - 23.1 1016.8 0.0
04/10:00am NNW 6 9 - - - - 10 Partly cloudy - 22.0 1017.0 0.0
04/09:30am N 7 10 - - - - 10 Partly cloudy - 21.5 1017.2 0.0
04/09:00am N 7 10 - - - - 30 Partly cloudy Fine 21.7 1017.4 0.0
04/08:30am E 2 5 - - - - 10 Partly cloudy - 20.8 1017.6 0.0
04/08:00am WNW 4 5 - - - - 10 Mostly clear - 20.0 1017.6 0.0
04/07:30am WNW 4 7 - - - - 10 Mostly clear - 18.9 1017.4 0.0
04/07:00am W 2 4 - - - - 10 Mostly clear - 17.7 1017.2 0.0
04/06:30am W 3 6 - - - - 10 Mostly clear - 17.6 1017.0 0.0
04/06:00am WNW 4 5 - - - - 30 Mostly clear Fine 16.8 1016.9 0.0
04/05:30am WNW 4 5 - - - - 10 Mostly clear - 16.6 1016.7 0.0
04/05:00am WNW 4 5 - - - - 10 Mostly clear - 17.0 1016.6 0.0
04/04:30am WNW 4 5 - - - - 10 Mostly clear - 17.1 1016.5 0.0
04/04:00am WNW 5 5 - - - - 10 Mostly clear - 17.2 1016.5 0.0
04/03:30am WNW 4 5 - - - - 10 Mostly clear - 17.5 1016.5 0.0
04/03:00am WNW 5 6 - - - - 30 Partly cloudy Fine 17.3 1016.5 0.0
04/02:30am WNW 5 6 - - - - 10 Mostly clear - 17.8 1016.7 0.0
04/02:00am NNW 4 5 - - - - 10 Mostly clear - 18.4 1016.9 0.0
04/01:30am NNE 5 6 - - - - 10 Partly cloudy - 19.3 1017.2 0.0
04/01:00am NNE 5 6 - - - - 10 Mostly clear - 19.0 1017.4 0.0
04/12:30am NNE 5 7 - - - - 10 Mostly clear - 19.0 1017.6 0.0
04/12:00am NNE 5 7 - - - - 30 Partly cloudy Fine 19.0 1017.8 0.0
 
Date/Time
EDT
Wind Sea
Height
m
Swell Vis
km
Cloud Weather Temp
°C
Press
MSL
hPa
Rain since
9am
mm
Dir  Spd
kts
Gust
kts
Height
m
Period
s
Dir
03/11:30pm NNE 5 7 - - - - 10 Mostly clear - 19.0 1017.8 0.0
03/11:00pm NE 7 8 - - - - 10 Mostly clear - 19.1 1017.9 0.0
03/10:30pm NE 6 8 - - - - 10 Mostly clear - 19.8 1017.8 0.0
03/10:00pm NE 7 12 - - - - 10 Mostly clear - 19.9 1017.8 0.0
03/09:30pm NE 10 14 - - - - 10 Mostly clear - 19.4 1017.7 0.0
03/09:00pm NE 7 9 - - - - 30 Mostly clear Fine 19.6 1017.4 0.0
03/08:30pm NE 11 15 - - - - 10 - - 20.0 1017.0 0.0
03/08:00pm NE 11 15 - - - - 10 - - 20.3 1016.9 0.0
03/07:30pm NE 13 17 - - - - 10 - - 20.9 1016.8 0.0
03/07:00pm NE 13 16 - - - - 10 - - 20.8 1016.6 0.0

Other formats

Comma delimited format used in spreadsheet applications
http://www.bom.gov.au/fwo/IDN60701/IDN60701.94767.axf

JavaScript Object Notation format (JSON) in row-major order
http://www.bom.gov.au/fwo/IDN60701/IDN60701.94767.json

Data quality

Most of these data are generated automatically and are frequently updated. Quality checks on data are not normally performed. It is possible for incorrect values to appear. Refer to information at About Latest Weather Observations and please check the disclaimer before using these data.